TimeCST,TemperatureF,Dew PointF,Humidity,Sea Level PressureIn,VisibilityMPH,Wind Direction,Wind SpeedMPH,Gust SpeedMPH,PrecipitationIn,Events,Conditions,WindDirDegrees,DateUTC
12:15 AM,32.0,14.0,48,29.79,10.0,SSW,15.0,24.2,N/A,,Overcast,200,2014-01-18 06:15:00
12:35 AM,32.0,15.8,51,29.77,10.0,SSW,16.1,-,N/A,,Overcast,200,2014-01-18 06:35:00
12:55 AM,32.0,15.8,51,29.75,10.0,SSW,16.1,25.3,N/A,,Overcast,200,2014-01-18 06:55:00
1:15 AM,32.0,15.8,51,29.73,10.0,South,15.0,-,N/A,,Overcast,190,2014-01-18 07:15:00
1:35 AM,32.0,15.8,51,29.70,10.0,South,12.7,-,N/A,,Overcast,190,2014-01-18 07:35:00
1:55 AM,32.0,15.8,51,29.70,10.0,SSW,17.3,-,N/A,,Mostly Cloudy,210,2014-01-18 07:55:00
2:15 AM,32.0,15.8,51,29.69,10.0,SW,16.1,21.9,N/A,,Mostly Cloudy,220,2014-01-18 08:15:00
2:35 AM,30.2,17.6,60,29.68,10.0,SSW,13.8,20.7,N/A,,Overcast,210,2014-01-18 08:35:00
2:55 AM,30.2,17.6,60,29.68,10.0,SW,11.5,-,N/A,,Overcast,220,2014-01-18 08:55:00
3:15 AM,30.2,17.6,60,29.67,10.0,SW,11.5,-,N/A,,Mostly Cloudy,220,2014-01-18 09:15:00
3:35 AM,30.2,17.6,60,29.66,10.0,SSW,11.5,-,N/A,,Mostly Cloudy,210,2014-01-18 09:35:00
3:55 AM,32.0,17.6,55,29.65,10.0,SW,10.4,-,N/A,,Mostly Cloudy,220,2014-01-18 09:55:00
4:15 AM,32.0,17.6,55,29.64,10.0,WSW,5.8,-,N/A,,Overcast,250,2014-01-18 10:15:00
4:35 AM,35.6,19.4,52,29.63,10.0,West,13.8,-,N/A,,Overcast,270,2014-01-18 10:35:00
4:55 AM,39.2,23.0,52,29.61,10.0,WNW,17.3,26.5,N/A,,Overcast,290,2014-01-18 10:55:00
5:15 AM,39.2,23.0,52,29.62,10.0,WNW,18.4,25.3,N/A,,Overcast,290,2014-01-18 11:15:00
5:35 AM,39.2,23.0,52,29.62,10.0,WNW,16.1,25.3,N/A,,Overcast,290,2014-01-18 11:35:00
5:55 AM,39.2,24.8,56,29.61,10.0,WNW,15.0,21.9,N/A,,Overcast,290,2014-01-18 11:55:00
6:15 AM,39.2,26.6,61,29.61,10.0,WNW,11.5,19.6,N/A,,Mostly Cloudy,300,2014-01-18 12:15:00
6:35 AM,39.2,26.6,61,29.62,10.0,WNW,12.7,-,N/A,,Scattered Clouds,300,2014-01-18 12:35:00
6:55 AM,39.2,26.6,61,29.62,10.0,WNW,15.0,-,N/A,,Mostly Cloudy,300,2014-01-18 12:55:00
7:15 AM,41.0,28.4,61,29.62,10.0,WNW,17.3,25.3,N/A,,Overcast,300,2014-01-18 13:15:00
7:35 AM,41.0,28.4,61,29.62,10.0,NW,16.1,29.9,N/A,,Overcast,310,2014-01-18 13:35:00
7:55 AM,41.0,28.4,61,29.61,10.0,WNW,18.4,27.6,N/A,,Overcast,300,2014-01-18 13:55:00
8:15 AM,41.0,30.2,65,29.62,10.0,NW,33.4,43.7,N/A,,Overcast,310,2014-01-18 14:15:00
8:35 AM,41.0,30.2,65,29.62,10.0,WNW,25.3,36.8,N/A,,Overcast,300,2014-01-18 14:35:00
8:55 AM,41.0,30.2,65,29.62,10.0,NW,27.6,41.4,N/A,,Overcast,310,2014-01-18 14:55:00
9:15 AM,41.0,30.2,65,29.63,10.0,WNW,23.0,31.1,N/A,,Overcast,300,2014-01-18 15:15:00
9:35 AM,41.0,30.2,65,29.63,10.0,WNW,23.0,-,N/A,,Overcast,300,2014-01-18 15:35:00
9:55 AM,41.0,30.2,65,29.64,10.0,NW,20.7,33.4,N/A,,Overcast,310,2014-01-18 15:55:00
10:15 AM,41.0,30.2,65,29.65,9.0,NW,36.8,47.2,N/A,,Overcast,310,2014-01-18 16:15:00
10:35 AM,37.4,32.0,81,29.66,10.0,NW,25.3,43.7,N/A,,Overcast,320,2014-01-18 16:35:00
10:55 AM,37.4,26.6,65,29.68,10.0,NW,33.4,44.9,N/A,,Overcast,320,2014-01-18 16:55:00
11:15 AM,37.4,24.8,60,29.69,10.0,NW,24.2,47.2,N/A,,Overcast,320,2014-01-18 17:15:00
11:35 AM,35.6,24.8,65,29.71,10.0,NNW,18.4,31.1,N/A,,Overcast,330,2014-01-18 17:35:00
11:55 AM,33.8,23.0,65,29.72,10.0,NW,32.2,44.9,N/A,,Overcast,310,2014-01-18 17:55:00
12:15 PM,32.0,23.0,69,29.73,10.0,NW,26.5,50.6,N/A,,Overcast,320,2014-01-18 18:15:00
12:35 PM,32.0,21.2,64,29.75,10.0,NW,24.2,44.9,N/A,,Overcast,320,2014-01-18 18:35:00
12:55 PM,30.2,21.2,69,29.76,10.0,NNW,24.2,42.6,N/A,,Overcast,330,2014-01-18 18:55:00
1:15 PM,28.4,19.4,69,29.77,10.0,NNW,28.8,46.0,N/A,,Overcast,340,2014-01-18 19:15:00
1:35 PM,28.4,19.4,69,29.80,10.0,NNW,26.5,40.3,N/A,,Overcast,340,2014-01-18 19:35:00
1:55 PM,26.6,17.6,69,29.82,10.0,NNW,29.9,51.8,N/A,,Overcast,340,2014-01-18 19:55:00
2:15 PM,26.6,17.6,69,29.84,10.0,NNW,25.3,42.6,N/A,,Overcast,330,2014-01-18 20:15:00
2:35 PM,26.6,17.6,69,29.86,10.0,NNW,25.3,39.1,N/A,,Overcast,330,2014-01-18 20:35:00
2:55 PM,26.6,17.6,69,29.88,10.0,NNW,24.2,39.1,N/A,,Overcast,330,2014-01-18 20:55:00
3:15 PM,26.6,17.6,69,29.91,10.0,North,25.3,34.5,N/A,,Overcast,350,2014-01-18 21:15:00
3:35 PM,26.6,15.8,64,29.93,10.0,NNW,21.9,36.8,N/A,,Overcast,340,2014-01-18 21:35:00
3:55 PM,26.6,15.8,64,29.95,10.0,NNW,23.0,34.5,N/A,,Overcast,340,2014-01-18 21:55:00
4:15 PM,24.8,15.8,69,29.96,10.0,North,24.2,35.7,N/A,,Mostly Cloudy,350,2014-01-18 22:15:00
4:35 PM,24.8,15.8,69,29.98,10.0,NNW,20.7,28.8,N/A,,Partly Cloudy,330,2014-01-18 22:35:00
4:55 PM,24.8,15.8,69,30.00,10.0,NNW,24.2,33.4,N/A,,Clear,340,2014-01-18 22:55:00
5:15 PM,24.8,15.8,69,30.02,10.0,NNW,18.4,24.2,N/A,,Clear,340,2014-01-18 23:15:00
5:35 PM,24.8,15.8,69,30.02,10.0,NNW,12.7,19.6,N/A,,Clear,330,2014-01-18 23:35:00
5:55 PM,23.0,15.8,74,30.04,10.0,NNW,16.1,24.2,N/A,,Clear,330,2014-01-18 23:55:00
6:15 PM,24.8,15.8,69,30.04,10.0,NNW,18.4,28.8,N/A,,Clear,330,2014-01-19 00:15:00
6:35 PM,23.0,15.8,74,30.05,10.0,NNW,17.3,-,N/A,,Clear,330,2014-01-19 00:35:00
6:55 PM,23.0,15.8,74,30.05,10.0,NNW,13.8,21.9,N/A,,Clear,340,2014-01-19 00:55:00
7:15 PM,23.0,15.8,74,30.05,10.0,NNW,15.0,-,N/A,,Clear,340,2014-01-19 01:15:00
7:35 PM,23.0,15.8,74,30.05,10.0,NNW,10.4,-,N/A,,Clear,330,2014-01-19 01:35:00
7:55 PM,21.2,15.8,80,30.05,10.0,NW,8.1,-,N/A,,Clear,320,2014-01-19 01:55:00
8:15 PM,21.2,15.8,80,30.05,10.0,WNW,4.6,-,N/A,,Clear,300,2014-01-19 02:15:00
8:35 PM,19.4,15.8,86,30.05,10.0,NW,4.6,-,N/A,,Clear,310,2014-01-19 02:35:00
8:55 PM,19.4,15.8,86,30.05,10.0,NW,8.1,-,N/A,,Clear,320,2014-01-19 02:55:00
9:15 PM,19.4,15.8,86,30.04,10.0,WNW,4.6,-,N/A,,Clear,290,2014-01-19 03:15:00
9:35 PM,19.4,15.8,86,30.05,10.0,WNW,4.6,-,N/A,,Clear,300,2014-01-19 03:35:00
9:55 PM,19.4,15.8,86,30.05,10.0,WSW,5.8,-,N/A,,Clear,240,2014-01-19 03:55:00
10:15 PM,19.4,15.8,86,30.04,10.0,West,5.8,-,N/A,,Clear,260,2014-01-19 04:15:00
10:35 PM,19.4,17.6,93,30.05,10.0,SW,5.8,-,N/A,,Clear,230,2014-01-19 04:35:00
10:55 PM,21.2,17.6,86,30.05,10.0,WSW,6.9,-,N/A,,Clear,250,2014-01-19 04:55:00
11:15 PM,21.2,17.6,86,30.01,10.0,SW,8.1,-,N/A,,Mostly Cloudy,230,2014-01-19 05:15:00
11:35 PM,21.2,17.6,86,30.01,10.0,SW,6.9,-,N/A,,Scattered Clouds,230,2014-01-19 05:35:00
11:55 PM,21.2,19.4,93,30.01,10.0,SW,4.6,-,N/A,,Clear,220,2014-01-19 05:55:00